Bulk Trident — 3FZC7 — position and weather

sailwx.info

Track history (hours):
 
Tides and Currents Weather Stations Pressure Air Temp Water Temp Dewpoint Dewpoint Depression Visibility Wind Speed Wind Dir Waves Ship Positions

Bulk Trident

Last reported at 2018-Jan-20 22:43 UTC. Time now 2018-Feb-17 19:35 UTC.
Position N 29°26' W 094°50'.
Warning: this ship's position is 27 days out of date.

Length 190 m; draft 12.2 m.

MMSI: 371600000.

Date/timePositionNaut miles runAvg speedWind from/ knotsBaromVisibWave heightAir tempDewpointWater temp
2018-Jan-20 22:43N 29°26' W 094°50'210.2
2018-Jan-20 22:30N 29°28' W 094°51'510.2
2018-Jan-20 22:00N 29°32' W 094°54'5 9.8
2018-Jan-20 21:30N 29°37' W 094°57'5 9.0
2018-Jan-20 21:00N 29°41' W 094°59'4 7.0
2018-Jan-20 20:27N 29°44' W 095°02'3 6.9
2018-Jan-20 20:00N 29°46' W 095°05'3 5.6
2018-Jan-20 19:28N 29°44' W 095°07'1 1.5
2018-Jan-20 18:47N 29°44' W 095°09'0 0.0
2018-Jan-20 18:14N 29°44' W 095°09'0 0.0
2018-Jan-20 17:47N 29°44' W 095°09'0 0.0
2018-Jan-20 16:38N 29°44' W 095°09'0 0.0
2018-Jan-20 16:26N 29°44' W 095°09'0 0.0
2018-Jan-20 15:59N 29°44' W 095°09'0 0.0
2018-Jan-20 15:22N 29°44' W 095°09'0 0.0
2018-Jan-20 12:40N 29°44' W 095°09'0 0.0
2018-Jan-20 12:28N 29°44' W 095°09'0 0.0
2018-Jan-20 11:52N 29°44' W 095°09'0 0.0
2018-Jan-20 11:22N 29°44' W 095°09'0 0.0
2018-Jan-20 10:58N 29°44' W 095°09'0 0.0
2018-Jan-20 08:16N 29°44' W 095°09'0 0.0
2018-Jan-20 07:52N 29°44' W 095°09'0 0.0
2018-Jan-20 07:28N 29°44' W 095°09'0 0.0
2018-Jan-20 06:55N 29°44' W 095°09'0 0.0
2018-Jan-20 06:22N 29°44' W 095°09'0 0.0
2018-Jan-20 05:58N 29°44' W 095°09'0 0.0
2018-Jan-19 22:13N 29°44' W 095°09'0 0.0
2018-Jan-19 21:58N 29°44' W 095°09'0 0.0
2018-Jan-19 16:46N 29°44' W 095°09'0 0.0
2018-Jan-19 16:25N 29°44' W 095°09'0 0.0
2018-Jan-19 15:58N 29°44' W 095°09'0 0.0
2018-Jan-19 15:10N 29°44' W 095°09'0 0.0
2018-Jan-19 14:13N 29°44' W 095°09'0 0.0
2018-Jan-19 13:55N 29°44' W 095°09'0 0.0
2018-Jan-19 13:25N 29°44' W 095°09'0 0.0
2018-Jan-19 12:58N 29°44' W 095°09'0 0.0
2018-Jan-19 11:22N 29°44' W 095°09'0 0.0
2018-Jan-19 10:55N 29°44' W 095°09'0 0.0
2018-Jan-19 10:13N 29°44' W 095°09'0 0.0
2018-Jan-19 09:58N 29°44' W 095°09'0 0.0
2018-Jan-19 09:25N 29°44' W 095°09'0 0.0
2018-Jan-19 08:52N 29°44' W 095°09'0 0.0
2018-Jan-19 08:22N 29°44' W 095°09'0 0.0
2018-Jan-19 07:55N 29°44' W 095°09'0 0.0
2018-Jan-19 07:10N 29°44' W 095°09'0 0.0
2018-Jan-19 06:58N 29°44' W 095°09'1 2.5
2018-Jan-19 06:28N 29°44' W 095°07'3 5.9
2018-Jan-19 05:58N 29°46' W 095°04'4 7.4
2018-Jan-19 05:27N 29°43' W 095°01'4 9.0
2018-Jan-19 05:01N 29°40' W 094°58'611.2
2018-Jan-19 04:30N 29°35' W 094°56'712.9
2018-Jan-19 04:00N 29°29' W 094°52'813.5
2018-Jan-19 03:25N 29°22' W 094°48'  
Track history (hours):
 
Tides and Currents Weather Stations Pressure Air Temp Water Temp Dewpoint Dewpoint Depression Visibility Wind Speed Wind Dir Waves Ship Positions

Bulk Trident

Last reported at 2018-Jan-20 22:43 UTC. Time now 2018-Feb-17 19:35 UTC.
Position N 29°26' W 094°50'.
Warning: this ship's position is 27 days out of date.

Length 190 m; draft 12.2 m.

MMSI: 371600000.

Date/timePositionNaut miles runAvg speedWind from/ knotsBaromVisibWave heightAir tempDewpointWater temp
2018-Jan-20 22:43N 29°26' W 094°50'210.2
2018-Jan-20 22:30N 29°28' W 094°51'510.2
2018-Jan-20 22:00N 29°32' W 094°54'5 9.8
2018-Jan-20 21:30N 29°37' W 094°57'5 9.0
2018-Jan-20 21:00N 29°41' W 094°59'4 7.0
2018-Jan-20 20:27N 29°44' W 095°02'3 6.9
2018-Jan-20 20:00N 29°46' W 095°05'3 5.6
2018-Jan-20 19:28N 29°44' W 095°07'1 1.5
2018-Jan-20 18:47N 29°44' W 095°09'0 0.0
2018-Jan-20 18:14N 29°44' W 095°09'0 0.0
2018-Jan-20 17:47N 29°44' W 095°09'0 0.0
2018-Jan-20 16:38N 29°44' W 095°09'0 0.0
2018-Jan-20 16:26N 29°44' W 095°09'0 0.0
2018-Jan-20 15:59N 29°44' W 095°09'0 0.0
2018-Jan-20 15:22N 29°44' W 095°09'0 0.0
2018-Jan-20 12:40N 29°44' W 095°09'0 0.0
2018-Jan-20 12:28N 29°44' W 095°09'0 0.0
2018-Jan-20 11:52N 29°44' W 095°09'0 0.0
2018-Jan-20 11:22N 29°44' W 095°09'0 0.0
2018-Jan-20 10:58N 29°44' W 095°09'0 0.0
2018-Jan-20 08:16N 29°44' W 095°09'0 0.0
2018-Jan-20 07:52N 29°44' W 095°09'0 0.0
2018-Jan-20 07:28N 29°44' W 095°09'0 0.0
2018-Jan-20 06:55N 29°44' W 095°09'0 0.0
2018-Jan-20 06:22N 29°44' W 095°09'0 0.0
2018-Jan-20 05:58N 29°44' W 095°09'0 0.0
2018-Jan-19 22:13N 29°44' W 095°09'0 0.0
2018-Jan-19 21:58N 29°44' W 095°09'0 0.0
2018-Jan-19 16:46N 29°44' W 095°09'0 0.0
2018-Jan-19 16:25N 29°44' W 095°09'0 0.0
2018-Jan-19 15:58N 29°44' W 095°09'0 0.0
2018-Jan-19 15:10N 29°44' W 095°09'0 0.0
2018-Jan-19 14:13N 29°44' W 095°09'0 0.0
2018-Jan-19 13:55N 29°44' W 095°09'0 0.0
2018-Jan-19 13:25N 29°44' W 095°09'0 0.0
2018-Jan-19 12:58N 29°44' W 095°09'0 0.0
2018-Jan-19 11:22N 29°44' W 095°09'0 0.0
2018-Jan-19 10:55N 29°44' W 095°09'0 0.0
2018-Jan-19 10:13N 29°44' W 095°09'0 0.0
2018-Jan-19 09:58N 29°44' W 095°09'0 0.0
2018-Jan-19 09:25N 29°44' W 095°09'0 0.0
2018-Jan-19 08:52N 29°44' W 095°09'0 0.0
2018-Jan-19 08:22N 29°44' W 095°09'0 0.0
2018-Jan-19 07:55N 29°44' W 095°09'0 0.0
2018-Jan-19 07:10N 29°44' W 095°09'0 0.0
2018-Jan-19 06:58N 29°44' W 095°09'1 2.5
2018-Jan-19 06:28N 29°44' W 095°07'3 5.9
2018-Jan-19 05:58N 29°46' W 095°04'4 7.4
2018-Jan-19 05:27N 29°43' W 095°01'4 9.0
2018-Jan-19 05:01N 29°40' W 094°58'611.2
2018-Jan-19 04:30N 29°35' W 094°56'712.9
2018-Jan-19 04:00N 29°29' W 094°52'813.5
2018-Jan-19 03:25N 29°22' W 094°48'  

Dump ship's entire track history